Time;durP1;ratioP1;P1;durP2;ratioP2;P2;SDS_P1;SDS_P2;PMS_P1;PMS_P2;Temp;Humidity;BMP_temperature;BMP_pressure;BME280_temperature;BME280_humidity;BME280_pressure;Samples;Min_cycle;Max_cycle;Signal;HPM_P1;HPM_P2
2022/05/14 00:01:54;;;;;;;11.20;4.30;;;;;;;10.13;71.98;100333.94;10412522;28;20096;-77
2022/05/14 00:06:54;;;;;;;12.77;4.78;;;;;;;9.71;72.09;100295.91;10415997;28;20044;-76
2022/05/14 00:17:14;;;;;;;13.15;3.72;;;;;;;10.28;72.37;100423.41;10419991;28;20044;-77
2022/05/14 00:22:15;;;;;;;10.48;4.25;;;;;;;10.46;72.86;100449.81;10419280;28;20136;-77
2022/05/14 00:27:16;;;;;;;7.78;3.63;;;;;;;9.07;72.60;100225.84;10420399;28;20041;-77
2022/05/14 00:32:16;;;;;;;12.73;4.13;;;;;;;10.31;73.09;100437.34;10418851;28;20037;-77
2022/05/14 00:37:17;;;;;;;9.70;4.55;;;;;;;9.32;73.42;100285.88;10419770;28;20041;-77
2022/05/14 00:42:19;;;;;;;10.93;4.05;;;;;;;9.07;73.67;100224.03;10419605;28;20417;-76
2022/05/14 00:47:20;;;;;;;10.05;4.15;;;;;;;10.19;74.01;100434.97;10425332;28;20404;-76
2022/05/14 00:52:22;;;;;;;7.05;3.95;;;;;;;9.72;74.94;100377.16;10460396;28;20045;-77
2022/05/14 00:57:26;;;;;;;11.68;4.20;;;;;;;10.17;75.08;100439.63;10458820;28;20053;-76
2022/05/14 01:02:28;;;;;;;16.58;4.20;;;;;;;9.90;74.37;100403.59;10460060;28;20043;-77
2022/05/14 01:07:30;;;;;;;36.25;5.07;;;;;;;8.41;74.51;100195.63;10459500;28;20045;-77
2022/05/14 01:12:34;;;;;;;17.67;5.22;;;;;;;9.21;75.21;100325.09;10458934;28;20033;-76
2022/05/14 01:17:34;;;;;;;41.42;5.50;;;;;;;9.74;75.13;100427.41;10434687;28;20057;-76
2022/05/14 01:22:49;;;;;;;18.70;4.70;;;;;;;9.84;76.50;100438.69;10416906;28;20087;-77
2022/05/14 01:27:50;;;;;;;18.45;5.25;;;;;;;9.21;75.52;100331.22;10417408;28;20045;-77
2022/05/14 01:33:04;;;;;;;24.42;7.60;;;;;;;9.25;76.80;100343.19;10418265;28;20044;-77
2022/05/14 01:38:05;;;;;;;44.28;14.60;;;;;;;8.75;75.77;100242.44;10415732;28;20418;-76
2022/05/14 01:43:07;;;;;;;22.50;7.63;;;;;;;9.75;75.80;100426.41;10416602;28;20045;-77
2022/05/14 01:48:09;;;;;;;20.33;6.00;;;;;;;8.85;75.96;100278.41;10416520;28;20514;-76
2022/05/14 01:53:10;;;;;;;21.80;6.15;;;;;;;9.73;76.54;100412.47;10416605;28;20128;-76
2022/05/14 02:03:30;;;;;;;16.60;8.02;;;;;;;9.50;77.42;100352.06;10415245;28;20057;-77
2022/05/14 02:08:31;;;;;;;37.13;8.10;;;;;;;9.95;77.40;100408.38;10415204;28;20042;-77
2022/05/14 02:13:32;;;;;;;71.28;10.38;;;;;;;9.47;76.46;100293.22;10415644;28;20417;-77
2022/05/14 02:18:33;;;;;;;26.30;11.60;;;;;;;10.23;75.77;100369.97;10415263;28;20037;-76
2022/05/14 02:23:36;;;;;;;39.55;9.88;;;;;;;10.17;75.54;100312.22;10414403;28;20037;-77
2022/05/14 02:28:38;;;;;;;17.50;6.32;;;;;;;9.89;74.55;100192.28;10414773;28;20042;-77
2022/05/14 02:33:39;;;;;;;15.50;5.75;;;;;;;11.22;72.93;100290.91;10415676;28;20052;-77
2022/05/14 02:38:40;;;;;;;43.60;7.93;;;;;;;11.89;71.63;100285.03;10414513;28;20045;-77
2022/05/14 02:43:41;;;;;;;38.85;6.97;;;;;;;12.52;70.58;100267.81;10414294;28;20159;-77
2022/05/14 02:48:42;;;;;;;14.10;6.00;;;;;;;13.31;69.43;100301.09;10413662;28;20048;-78
2022/05/14 02:53:43;;;;;;;29.50;7.80;;;;;;;13.70;68.27;100240.16;10414015;28;20061;-78
2022/05/14 03:04:04;;;;;;;11.25;4.75;;;;;;;16.73;61.48;100255.06;10413300;28;20494;-78
2022/05/14 03:09:05;;;;;;;14.73;4.60;;;;;;;18.78;58.16;100381.25;10412936;28;20041;-78
2022/05/14 03:14:06;;;;;;;15.85;5.30;;;;;;;18.78;54.38;100286.25;10413375;28;20565;-78
2022/05/14 03:19:07;;;;;;;8.43;4.63;;;;;;;18.92;53.27;100228.53;10413271;28;20045;-78
2022/05/14 03:24:10;;;;;;;15.63;4.07;;;;;;;19.90;51.80;100259.75;10413453;28;20136;-78
2022/05/14 03:29:12;;;;;;;8.88;4.22;;;;;;;21.35;49.90;100360.78;10412579;28;20046;-78
2022/05/14 03:34:13;;;;;;;15.68;4.40;;;;;;;21.80;47.82;100373.59;10412591;28;20033;-79
2022/05/14 03:39:14;;;;;;;9.38;4.53;;;;;;;21.64;46.43;100255.44;10411460;28;20037;-79
2022/05/14 03:44:15;;;;;;;5.97;3.80;;;;;;;22.14;45.82;100371.00;10421559;28;20041;-79
2022/05/14 03:49:15;;;;;;;9.50;4.57;;;;;;;21.62;45.76;100261.06;10420407;28;20091;-79
2022/05/14 03:54:16;;;;;;;6.75;4.05;;;;;;;22.36;45.34;100364.88;10420236;28;20050;-78
2022/05/14 03:59:17;;;;;;;11.27;3.85;;;;;;;22.96;44.47;100366.94;10421291;28;20048;-80
2022/05/14 04:04:18;;;;;;;21.90;4.80;;;;;;;22.00;43.03;100058.59;10436139;28;20454;-79
2022/05/14 04:09:19;;;;;;;7.60;3.70;;;;;;;23.69;42.14;100289.78;10461694;28;20377;-79
2022/05/14 04:14:21;;;;;;;13.40;4.30;;;;;;;23.86;41.67;100259.81;10453726;28;20045;-79
2022/05/14 04:19:22;;;;;;;11.80;4.40;;;;;;;24.71;41.76;100360.44;10450825;28;20573;-79
2022/05/14 04:24:23;;;;;;;6.70;4.13;;;;;;;24.40;40.88;100370.19;10460647;28;20190;-79
2022/05/14 04:29:24;;;;;;;7.28;4.07;;;;;;;24.22;41.77;100373.28;10460799;28;20044;-79
2022/05/14 04:34:25;;;;;;;7.28;4.25;;;;;;;24.52;41.30;100313.84;10434211;28;20080;-78
2022/05/14 04:39:31;;;;;;;11.55;3.40;;;;;;;23.12;40.33;100105.94;10460085;28;20041;-79
2022/05/14 04:44:34;;;;;;;8.25;3.67;;;;;;;24.24;40.57;100363.81;10460002;28;20037;-78
2022/05/14 04:49:47;;;;;;;7.55;3.28;;;;;;;24.37;40.08;100352.53;10459387;28;20047;-80
2022/05/14 04:54:48;;;;;;;9.10;3.08;;;;;;;23.91;39.29;100316.03;10458921;28;20061;-79
2022/05/14 04:59:49;;;;;;;7.40;3.40;;;;;;;23.77;40.01;100333.78;10460877;28;20139;-78
2022/05/14 05:04:50;;;;;;;9.40;3.40;;;;;;;23.71;40.03;100332.09;10459464;28;20043;-78
2022/05/14 05:09:51;;;;;;;6.03;2.72;;;;;;;23.05;38.24;100294.16;10459410;28;20523;-77
2022/05/14 05:14:52;;;;;;;4.97;2.50;;;;;;;21.89;39.05;100220.69;10458759;28;20047;-79
2022/05/14 05:19:52;;;;;;;5.07;2.33;;;;;;;20.50;38.12;100046.38;10459874;28;20049;-80
2022/05/14 05:24:54;;;;;;;7.00;2.33;;;;;;;21.33;37.32;100168.38;10452618;28;20102;-79
2022/05/14 05:29:54;;;;;;;5.43;1.67;;;;;;;22.30;35.34;100302.56;10447479;28;20052;-74
2022/05/14 05:34:55;;;;;;;3.58;1.60;;;;;;;21.79;35.18;100177.28;10458263;28;20041;-76
2022/05/14 05:39:56;;;;;;;5.13;1.80;;;;;;;22.39;35.47;100254.25;10458657;28;20047;-77
2022/05/14 05:44:57;;;;;;;4.72;1.98;;;;;;;22.19;36.18;100137.59;10458453;28;20561;-79
2022/05/14 05:49:58;;;;;;;4.47;1.60;;;;;;;22.97;35.96;100276.44;10457557;28;20519;-79
2022/05/14 06:00:24;;;;;;;5.00;1.77;;;;;;;22.85;37.44;100191.75;10453195;28;20136;-84
2022/05/14 06:05:26;;;;;;;4.55;1.80;;;;;;;23.60;36.23;100304.00;10425944;28;20045;-81
2022/05/14 06:10:28;;;;;;;3.63;1.85;;;;;;;22.33;36.05;100125.34;10437650;28;20109;-77
2022/05/14 06:15:29;;;;;;;6.72;2.00;;;;;;;23.78;36.59;100275.75;10455960;28;20041;-82
2022/05/14 06:20:31;;;;;;;3.45;1.38;;;;;;;22.07;35.93;99989.69;10454416;28;20029;-83
2022/05/14 06:25:32;;;;;;;4.65;1.80;;;;;;;23.14;36.32;100111.91;10455746;28;20417;-83
2022/05/14 06:30:33;;;;;;;6.43;1.70;;;;;;;24.38;36.09;100236.63;10456261;28;20041;-80
2022/05/14 06:35:37;;;;;;;2.75;1.60;;;;;;;24.51;34.54;100255.19;10456711;28;20385;-83
2022/05/14 06:40:39;;;;;;;4.68;1.75;;;;;;;24.01;34.77;100142.47;10455622;28;20037;-82
2022/05/14 06:45:39;;;;;;;3.05;1.65;;;;;;;23.85;34.36;100144.25;10455385;28;20484;-82
2022/05/14 06:50:44;;;;;;;3.60;1.58;;;;;;;24.49;34.39;100230.16;10455944;28;20035;-82
2022/05/14 06:55:50;;;;;;;3.90;1.60;;;;;;;24.60;34.67;100237.31;10455236;28;20057;-82
2022/05/14 07:00:51;;;;;;;8.55;2.40;;;;;;;23.05;34.98;99944.69;10456294;28;20096;-81
2022/05/14 07:11:11;;;;;;;5.10;1.70;;;;;;;24.36;33.41;100187.19;10454113;28;20124;-81
2022/05/14 07:16:12;;;;;;;6.85;1.80;;;;;;;24.70;33.66;100174.06;10454566;28;20144;-80
2022/05/14 07:21:12;;;;;;;3.65;1.80;;;;;;;23.76;33.44;100006.69;10453975;28;20095;-79
2022/05/14 07:26:13;;;;;;;4.22;1.70;;;;;;;24.35;33.53;100052.50;10455033;28;20094;-82
2022/05/14 07:31:14;;;;;;;4.57;2.15;;;;;;;25.00;33.48;100138.00;10453836;28;20037;-81
2022/05/14 07:36:18;;;;;;;6.07;1.92;;;;;;;25.27;33.10;100145.97;10454171;28;20045;-80
2022/05/14 07:41:19;;;;;;;6.65;1.90;;;;;;;25.53;32.75;100115.25;10453577;28;20052;-81
2022/05/14 07:46:26;;;;;;;16.80;2.35;;;;;;;25.84;32.54;100116.88;10454289;28;20044;-77
2022/05/14 07:51:28;;;;;;;4.47;2.10;;;;;;;26.09;32.33;100126.09;10453691;28;20562;-78
2022/05/14 07:56:29;;;;;;;6.78;2.47;;;;;;;26.21;31.96;100104.81;10453915;28;20135;-77
2022/05/14 08:01:30;;;;;;;8.10;2.17;;;;;;;25.33;32.33;99945.59;10453216;28;20124;-80
2022/05/14 08:06:31;;;;;;;7.10;2.10;;;;;;;26.14;33.24;100026.16;10453526;28;20045;-80
2022/05/14 08:11:33;;;;;;;5.18;2.00;;;;;;;26.64;32.52;100080.69;10453912;28;20041;-79
2022/05/14 08:16:34;;;;;;;13.68;2.38;;;;;;;26.25;31.67;100026.94;10454164;28;20040;-78
2022/05/14 08:26:54;;;;;;;5.57;1.80;;;;;;;26.23;31.33;100004.59;10455933;28;20086;-81
2022/05/14 08:31:55;;;;;;;4.60;1.95;;;;;;;26.51;30.98;100056.78;10460246;28;20069;-82
2022/05/14 08:36:57;;;;;;;4.30;1.92;;;;;;;26.51;31.65;99992.22;10460782;28;20041;-82
2022/05/14 08:42:00;;;;;;;7.85;1.88;;;;;;;27.06;32.08;100032.97;10460495;28;20135;-81
2022/05/14 08:47:05;;;;;;;8.73;1.83;;;;;;;27.17;31.67;100014.66;10460515;28;20114;-80
2022/05/14 08:52:13;;;;;;;3.92;1.65;;;;;;;26.85;30.52;99975.09;10459499;28;20077;-78
2022/05/14 08:57:49;;;;;;;4.35;1.70;;;;;;;27.38;31.14;99988.81;10460361;28;20049;-82
2022/05/14 09:02:52;;;;;;;9.20;1.95;;;;;;;27.12;32.82;99971.84;10459038;28;20048;-78
2022/05/14 09:07:54;;;;;;;9.95;2.20;;;;;;;27.29;33.08;99985.91;10459707;28;20087;-82
2022/05/14 09:13:02;;;;;;;9.07;1.90;;;;;;;27.52;33.47;99980.75;10459331;28;20063;-77
2022/05/14 09:18:13;;;;;;;4.75;1.70;;;;;;;26.52;31.43;99816.00;10459529;28;20048;-79
2022/05/14 09:23:25;;;;;;;15.80;2.53;;;;;;;27.17;31.88;99870.94;10459035;28;20033;-77
2022/05/14 09:28:41;;;;;;;6.50;1.90;;;;;;;27.84;31.98;99957.50;10458766;28;20047;-77
2022/05/14 09:33:44;;;;;;;6.80;2.05;;;;;;;27.65;30.62;99947.31;10458439;28;20048;-78
2022/05/14 09:38:45;;;;;;;4.85;1.65;;;;;;;27.67;32.00;99926.03;10457955;28;20068;-81
2022/05/14 09:43:51;;;;;;;5.38;1.65;;;;;;;27.73;31.22;99900.28;10457369;28;20060;-79
2022/05/14 09:49:01;;;;;;;6.15;1.60;;;;;;;27.99;30.19;99938.19;10457127;28;20091;-81
2022/05/14 09:54:29;;;;;;;6.03;1.63;;;;;;;28.16;31.04;99937.69;10457813;28;20088;-84
2022/05/14 09:59:43;;;;;;;14.43;2.20;;;;;;;28.22;31.47;99918.19;10458035;28;20049;-81
2022/05/14 10:05:01;;;;;;;9.10;1.70;;;;;;;28.32;31.57;99927.34;10456550;28;20041;-81
2022/05/14 10:10:17;;;;;;;4.63;1.63;;;;;;;28.54;31.29;99937.69;10456890;28;20396;-81
2022/05/14 10:15:38;;;;;;;13.27;1.95;;;;;;;28.49;31.51;99930.38;10456783;28;20429;-80
2022/05/14 10:21:00;;;;;;;8.30;1.75;;;;;;;28.47;31.48;99929.06;10457100;28;20045;-77
2022/05/14 10:26:45;;;;;;;8.60;2.30;;;;;;;28.65;29.77;99928.22;10456192;28;20040;-79
2022/05/14 10:32:04;;;;;;;10.88;2.40;;;;;;;27.97;30.65;99799.25;10456049;28;20476;-82
2022/05/14 10:37:24;;;;;;;8.02;1.73;;;;;;;27.97;29.34;99804.72;10456468;28;20052;-82
2022/05/14 10:42:49;;;;;;;7.10;2.00;;;;;;;28.76;29.22;99917.94;10456407;28;20051;-80
2022/05/14 10:48:19;;;;;;;5.20;1.67;;;;;;;28.28;29.11;99885.34;10455654;28;20036;-80
2022/05/14 10:53:20;;;;;;;4.03;1.73;;;;;;;28.31;29.62;99914.81;10451167;28;20500;-80
2022/05/14 10:58:35;;;;;;;2.83;1.48;;;;;;;28.14;29.43;99896.19;10455618;28;20447;-78
2022/05/14 11:03:38;;;;;;;11.68;1.65;;;;;;;27.49;29.68;99804.84;10454560;28;20467;-80
2022/05/14 11:08:45;;;;;;;4.05;1.88;;;;;;;28.29;29.67;99897.88;10454753;28;20036;-81
2022/05/14 11:14:03;;;;;;;3.97;1.83;;;;;;;28.59;29.31;99874.75;10454444;28;20037;-82
2022/05/14 11:19:04;;;;;;;15.02;2.60;;;;;;;27.99;29.20;99752.53;10454152;28;20094;-85
2022/05/14 11:24:06;;;;;;;7.00;1.67;;;;;;;27.95;29.68;99729.69;10454701;28;20043;-82
2022/05/14 11:29:20;;;;;;;5.17;1.60;;;;;;;29.00;28.88;99880.31;10452623;28;20080;-83
2022/05/14 11:34:24;;;;;;;7.32;1.88;;;;;;;27.92;28.33;99724.81;10454397;28;20496;-82
2022/05/14 11:39:29;;;;;;;4.15;1.80;;;;;;;27.89;28.22;99725.41;10454276;28;20044;-85
2022/05/14 11:44:46;;;;;;;4.63;1.80;;;;;;;28.12;28.59;99727.22;10453568;28;20072;-81
2022/05/14 11:49:50;;;;;;;2.90;1.60;;;;;;;28.83;28.22;99834.41;10453929;28;20045;-82
2022/05/14 11:55:03;;;;;;;6.00;1.80;;;;;;;29.04;28.59;99848.53;10453831;28;20064;-83
2022/05/14 12:00:12;;;;;;;4.50;1.65;;;;;;;28.91;28.08;99789.16;10453686;28;20135;-82
2022/05/14 12:05:32;;;;;;;6.55;1.63;;;;;;;29.06;28.34;99823.63;10462185;28;20041;-81
2022/05/14 12:10:52;;;;;;;32.70;3.15;;;;;;;28.98;29.10;99824.31;10461195;28;20076;-84
2022/05/14 12:15:57;;;;;;;5.38;2.00;;;;;;;28.76;29.23;99814.06;10460955;28;20110;-85
2022/05/14 12:21:03;;;;;;;12.80;2.10;;;;;;;28.61;28.42;99820.63;10461375;28;20074;-80
2022/05/14 12:26:25;;;;;;;7.13;2.00;;;;;;;28.56;29.26;99815.25;10461293;28;20099;-79
2022/05/14 12:36:54;;;;;;;8.88;1.80;;;;;;;28.61;28.78;99774.97;10460168;28;20066;-83
2022/05/14 12:42:02;;;;;;;3.40;1.60;;;;;;;28.91;28.71;99805.56;10460345;28;20492;-85
2022/05/14 12:47:05;;;;;;;3.85;1.73;;;;;;;28.87;28.27;99799.09;10452694;28;20348;-82
2022/05/14 12:52:21;;;;;;;10.98;2.30;;;;;;;28.58;27.38;99781.03;10459297;28;20487;-78
2022/05/14 12:57:22;;;;;;;9.02;1.80;;;;;;;28.26;28.43;99783.78;10459208;28;20053;-79
2022/05/14 13:02:33;;;;;;;6.72;2.20;;;;;;;28.40;29.01;99798.28;10459856;28;20041;-80
2022/05/14 13:07:41;;;;;;;6.85;2.20;;;;;;;27.69;28.32;99686.38;10458552;28;20049;-80
2022/05/14 13:12:48;;;;;;;5.15;2.30;;;;;;;27.29;29.10;99675.00;10456721;28;20041;-78
2022/05/14 13:17:49;;;;;;;8.85;2.00;;;;;;;27.33;28.70;99663.50;10458874;28;20507;-78
2022/05/14 13:23:00;;;;;;;10.70;2.33;;;;;;;27.98;29.39;99772.75;10458249;28;20135;-78
2022/05/14 13:28:15;;;;;;;6.20;1.70;;;;;;;27.71;29.65;99706.00;10458042;28;20037;-77
2022/05/14 13:33:34;;;;;;;5.63;1.67;;;;;;;28.36;29.64;99797.25;10457938;28;20049;-81
2022/05/14 13:38:38;;;;;;;5.03;2.03;;;;;;;27.92;29.84;99747.47;10458329;28;20098;-78
2022/05/14 13:43:43;;;;;;;8.30;2.40;;;;;;;28.10;29.89;99794.16;10457465;28;20096;-78
2022/05/14 13:48:47;;;;;;;5.50;2.10;;;;;;;27.81;30.08;99762.38;10458110;28;20139;-79
2022/05/14 13:54:06;;;;;;;6.90;1.88;;;;;;;28.04;29.88;99781.69;10457012;28;20135;-79
2022/05/14 13:59:20;;;;;;;7.80;1.77;;;;;;;28.04;29.66;99776.22;10457576;28;20041;-76
2022/05/14 14:04:27;;;;;;;6.00;1.60;;;;;;;27.86;29.67;99765.03;10457008;28;20488;-80
2022/05/14 14:09:28;;;;;;;13.40;2.00;;;;;;;27.98;29.58;99761.84;10443435;28;20052;-76
2022/05/14 14:14:29;;;;;;;14.60;2.10;;;;;;;27.85;29.73;99757.13;10422367;28;20110;-80
2022/05/14 14:19:30;;;;;;;9.75;2.20;;;;;;;27.79;30.40;99766.50;10412770;28;20042;-74
2022/05/14 14:24:35;;;;;;;5.00;1.77;;;;;;;27.46;30.48;99780.03;10414866;28;20041;-73
2022/05/14 14:29:35;;;;;;;6.13;2.03;;;;;;;27.25;30.53;99771.31;10423673;28;20049;-73
2022/05/14 14:34:37;;;;;;;8.80;1.95;;;;;;;27.01;31.24;99774.88;10455778;28;20513;-76
2022/05/14 14:39:38;;;;;;;6.28;2.50;;;;;;;26.72;31.77;99747.69;10452598;28;20052;-79
2022/05/14 14:44:40;;;;;;;13.43;2.95;;;;;;;26.06;31.98;99670.19;10435230;28;20041;-76
2022/05/14 14:49:41;;;;;;;8.57;1.98;;;;;;;26.07;31.97;99723.50;10419564;28;20041;-76
2022/05/14 14:54:41;;;;;;;6.13;1.77;;;;;;;25.60;33.31;99689.56;10449205;28;20061;-76
2022/05/14 14:59:42;;;;;;;10.52;4.90;;;;;;;25.89;34.15;99784.88;10423514;28;20045;-76
2022/05/14 15:05:00;;;;;;;16.25;7.80;;;;;;;25.44;35.50;99745.97;10452375;28;20044;-76
2022/05/14 15:10:04;;;;;;;24.55;10.13;;;;;;;25.56;35.72;99820.97;10453480;28;20045;-76
2022/05/14 15:15:06;;;;;;;21.60;10.18;;;;;;;25.15;37.23;99813.81;10443791;28;20472;-78
2022/05/14 15:20:07;;;;;;;11.82;3.95;;;;;;;24.76;38.20;99803.56;10414648;28;20050;-78
2022/05/14 15:25:10;;;;;;;28.48;11.18;;;;;;;24.04;42.13;99761.25;10413071;28;20456;-77
2022/05/14 15:30:12;;;;;;;41.43;18.87;;;;;;;24.13;45.61;99862.75;10426172;28;20072;-78
2022/05/14 15:35:14;;;;;;;89.80;12.68;;;;;;;23.66;49.09;99850.97;10413123;28;20084;-79
2022/05/14 15:40:15;;;;;;;33.75;20.17;;;;;;;22.98;50.20;99839.28;10448908;28;20033;-76
2022/05/14 15:45:24;;;;;;;38.53;17.38;;;;;;;22.90;51.18;99908.25;10445110;28;20039;-74
2022/05/14 15:50:31;;;;;;;20.80;7.70;;;;;;;22.76;52.11;99899.78;10435548;28;20041;-77
2022/05/14 15:55:32;;;;;;;14.32;4.40;;;;;;;21.94;51.77;99770.25;10416932;28;20520;-78
2022/05/14 16:00:33;;;;;;;26.23;3.60;;;;;;;21.94;52.71;99781.88;10436511;28;20045;-79
2022/05/14 16:05:35;;;;;;;27.98;3.70;;;;;;;22.03;53.40;99826.31;10435933;28;20509;-83
2022/05/14 16:16:00;;;;;;;15.10;4.30;;;;;;;21.88;54.85;99862.13;10440970;28;20167;-78
2022/05/14 16:21:01;;;;;;;19.00;4.07;;;;;;;21.55;54.84;99816.34;10461596;28;20072;-78
2022/05/14 16:26:03;;;;;;;21.25;3.13;;;;;;;21.91;55.76;99897.84;10461691;28;20040;-77
2022/05/14 16:31:04;;;;;;;49.60;17.65;;;;;;;21.51;55.82;99842.22;10460388;28;20045;-76
2022/05/14 16:36:06;;;;;;;41.10;15.65;;;;;;;21.53;54.38;99840.09;10461456;28;20527;-77
2022/05/14 16:41:07;;;;;;;90.53;33.58;;;;;;;21.74;54.75;99914.94;10456013;28;20082;-76
2022/05/14 16:46:09;;;;;;;31.17;13.10;;;;;;;21.38;54.78;99892.06;10457079;28;20109;-79
2022/05/14 16:51:10;;;;;;;21.17;10.50;;;;;;;21.28;54.40;99851.38;10457906;28;20068;-76
2022/05/14 16:56:17;;;;;;;28.30;11.48;;;;;;;21.50;56.16;99891.94;10457580;28;20115;-77
2022/05/14 17:01:18;;;;;;;19.00;9.82;;;;;;;21.07;56.19;99805.19;10456030;28;20040;-78
2022/05/14 17:06:19;;;;;;;24.20;10.50;;;;;;;20.16;57.54;99653.59;10450865;28;20442;-75
2022/05/14 17:11:20;;;;;;;16.10;7.28;;;;;;;19.92;57.31;99634.09;10450131;28;20032;-75
2022/05/14 17:16:21;;;;;;;14.32;5.22;;;;;;;20.70;56.56;99754.50;10455239;28;20381;-77
2022/05/14 17:21:21;;;;;;;15.73;3.90;;;;;;;21.10;55.08;99787.69;10456124;28;20127;-77
2022/05/14 17:26:22;;;;;;;10.00;4.13;;;;;;;21.26;54.81;99784.09;10456437;28;20035;-77
2022/05/14 17:31:23;;;;;;;17.20;7.32;;;;;;;20.74;53.56;99680.03;10449457;28;20115;-77
2022/05/14 17:36:24;;;;;;;18.27;4.88;;;;;;;19.63;52.40;99499.47;10418966;28;20046;-76
2022/05/14 17:41:25;;;;;;;7.80;3.50;;;;;;;21.34;52.13;99780.94;10465217;28;20041;-77
2022/05/14 17:46:26;;;;;;;8.02;3.53;;;;;;;21.17;52.32;99783.72;10429190;28;20065;-78
2022/05/14 17:51:27;;;;;;;9.65;3.67;;;;;;;20.82;54.54;99792.19;10416366;28;20042;-77
2022/05/14 17:56:28;;;;;;;8.40;3.90;;;;;;;20.32;54.79;99820.00;10415766;28;20103;-77
2022/05/14 18:01:29;;;;;;;17.60;8.38;;;;;;;20.26;54.95;99823.66;10442261;28;20588;-76
2022/05/14 18:06:31;;;;;;;27.60;11.65;;;;;;;20.36;55.02;99858.09;10454130;28;20099;-77
2022/05/14 18:11:43;;;;;;;18.13;6.40;;;;;;;19.58;54.52;99772.28;10453053;28;20063;-78
2022/05/14 18:16:47;;;;;;;16.02;7.90;;;;;;;20.41;52.84;99902.16;10455192;28;20033;-79
2022/05/14 18:21:48;;;;;;;11.13;4.07;;;;;;;20.44;52.23;99895.44;10439872;28;20140;-76
2022/05/14 18:27:16;;;;;;;11.23;4.25;;;;;;;20.89;49.21;99968.31;10415121;28;20045;-76
2022/05/14 18:32:25;;;;;;;13.88;2.30;;;;;;;21.04;50.21;99961.50;10415629;28;20085;-77
2022/05/14 18:37:26;;;;;;;10.15;2.08;;;;;;;20.82;51.78;99954.16;10415030;28;20508;-76
2022/05/14 18:42:28;;;;;;;8.35;1.90;;;;;;;20.43;53.20;99909.97;10413319;28;20036;-76
2022/05/14 18:47:29;;;;;;;8.30;2.10;;;;;;;18.89;54.29;99678.06;10414609;28;20057;-76
2022/05/14 18:52:29;;;;;;;4.63;1.88;;;;;;;19.68;53.71;99787.84;10414767;28;20528;-77
2022/05/14 18:57:30;;;;;;;8.90;1.80;;;;;;;20.06;54.27;99791.78;10435736;28;20057;-77
2022/05/14 19:02:31;;;;;;;4.22;1.83;;;;;;;19.97;55.03;99785.16;10443762;28;20512;-76
2022/05/14 19:07:33;;;;;;;4.47;1.80;;;;;;;19.92;56.23;99847.88;10454368;28;20044;-76
2022/05/14 19:12:33;;;;;;;4.03;1.38;;;;;;;19.58;57.50;99828.06;10453530;28;20041;-79
2022/05/14 19:17:36;;;;;;;5.15;1.63;;;;;;;19.44;58.73;99867.09;10455435;28;20044;-77
2022/05/14 19:22:37;;;;;;;46.65;14.20;;;;;;;19.20;58.62;99874.41;10454712;28;20045;-76
2022/05/14 19:27:38;;;;;;;27.08;12.93;;;;;;;18.13;58.74;99709.50;10453540;28;20140;-77
2022/05/14 19:32:39;;;;;;;18.75;7.50;;;;;;;18.74;59.60;99831.13;10454275;28;20382;-75
2022/05/14 19:38:00;;;;;;;22.17;9.05;;;;;;;18.51;62.74;99845.34;10453177;28;20037;-77
2022/05/14 19:43:34;;;;;;;29.45;11.30;;;;;;;18.49;62.74;99852.84;10455285;28;20102;-76
2022/05/14 19:48:37;;;;;;;18.95;8.88;;;;;;;18.23;62.47;99860.28;10444303;28;20059;-76
2022/05/14 19:53:41;;;;;;;24.25;10.13;;;;;;;17.77;63.91;99839.41;10453205;28;20537;-77
2022/05/14 19:58:41;;;;;;;;;;;;;;;17.97;61.66;99860.66;10453241;28;20037;-76
2022/05/14 20:03:44;;;;;;;28.90;12.02;;;;;;;17.36;63.20;99808.75;10453821;28;20334;-76
2022/05/14 20:08:44;;;;;;;15.05;6.43;;;;;;;17.81;63.18;99893.53;10452782;28;20508;-76
2022/05/14 20:13:45;;;;;;;9.48;3.45;;;;;;;17.84;62.49;99871.59;10453754;28;20064;-77
2022/05/14 20:24:06;;;;;;;9.23;2.72;;;;;;;17.62;63.36;99871.19;10458401;28;20045;-77
2022/05/14 20:29:07;;;;;;;25.77;12.43;;;;;;;16.60;63.68;99714.22;10461132;28;20048;-78
2022/05/14 20:34:08;;;;;;;14.20;9.38;;;;;;;17.33;64.37;99884.38;10461330;28;20075;-76
2022/05/14 20:39:09;;;;;;;12.43;4.32;;;;;;;16.87;64.80;99845.38;10459661;28;20041;-76
2022/05/14 20:44:10;;;;;;;8.18;3.35;;;;;;;16.62;66.20;99850.75;10459932;28;20033;-76
2022/05/14 20:49:11;;;;;;;8.68;2.42;;;;;;;15.18;66.37;99643.47;10460393;28;20107;-76
2022/05/14 20:54:11;;;;;;;5.25;2.05;;;;;;;16.10;67.13;99834.06;10459575;28;20424;-76
2022/05/14 20:59:13;;;;;;;6.43;2.13;;;;;;;16.36;68.40;99916.09;10459848;28;20045;-76
2022/05/14 21:04:14;;;;;;;4.03;1.95;;;;;;;15.58;68.31;99787.75;10459814;28;20119;-79
2022/05/14 21:09:15;;;;;;;6.80;2.58;;;;;;;16.27;68.75;99914.72;10459447;28;20123;-76
2022/05/14 21:14:16;;;;;;;4.57;2.20;;;;;;;15.95;69.14;99861.94;10459865;28;20032;-75
2022/05/14 21:19:19;;;;;;;5.45;2.00;;;;;;;16.02;70.69;99891.38;10459148;28;20040;-76
2022/05/14 21:24:24;;;;;;;6.85;1.83;;;;;;;16.02;70.53;99887.88;10458963;28;20036;-76
2022/05/14 21:29:24;;;;;;;3.95;2.20;;;;;;;15.80;69.59;99896.25;10458332;28;20051;-76
2022/05/14 21:39:45;;;;;;;6.20;2.63;;;;;;;15.31;71.25;99857.44;10459454;28;20067;-76
2022/05/14 21:44:45;;;;;;;6.15;2.60;;;;;;;15.50;72.03;99894.06;10457000;28;20029;-75
2022/05/14 21:49:46;;;;;;;5.57;2.85;;;;;;;15.16;73.43;99846.19;10457787;28;20049;-76
2022/05/14 21:54:47;;;;;;;7.80;2.83;;;;;;;15.44;72.90;99868.13;10456383;28;20140;-78
2022/05/14 21:59:48;;;;;;;5.80;2.80;;;;;;;15.16;73.17;99864.91;10457764;28;20068;-77
2022/05/14 22:04:51;;;;;;;6.22;3.00;;;;;;;14.79;74.24;99845.84;10457878;28;20040;-76
2022/05/14 22:09:53;;;;;;;6.13;2.67;;;;;;;14.97;75.23;99906.72;10456197;28;20049;-76
2022/05/14 22:14:54;;;;;;;4.75;2.53;;;;;;;14.78;75.58;99871.78;10458289;28;20037;-78
2022/05/14 22:19:54;;;;;;;5.65;3.05;;;;;;;14.72;76.52;99890.50;10456018;28;20432;-78
2022/05/14 22:24:55;;;;;;;7.10;2.88;;;;;;;12.90;76.96;99603.13;10457243;28;20048;-76
2022/05/14 22:29:56;;;;;;;4.68;2.50;;;;;;;14.33;76.47;99827.97;10455623;28;20052;-77
2022/05/14 22:34:57;;;;;;;5.55;2.22;;;;;;;13.33;75.93;99706.84;10455545;28;20041;-76
2022/05/14 22:45:17;;;;;;;9.80;2.55;;;;;;;13.80;78.23;99794.00;10455070;28;20042;-78
2022/05/14 22:50:18;;;;;;;7.03;2.90;;;;;;;14.12;79.63;99875.19;10455939;28;20049;-76
2022/05/14 22:55:22;;;;;;;8.10;2.75;;;;;;;14.19;79.76;99885.06;10455625;28;20053;-76
2022/05/14 23:00:23;;;;;;;4.75;2.53;;;;;;;13.91;77.95;99862.81;10455854;28;20048;-77
2022/05/14 23:05:24;;;;;;;7.28;2.72;;;;;;;13.60;78.87;99836.63;10455025;28;20033;-78
2022/05/14 23:10:25;;;;;;;5.82;2.88;;;;;;;13.98;79.35;99905.56;10454603;28;20124;-79
2022/05/14 23:15:26;;;;;;;10.55;5.53;;;;;;;13.35;79.85;99809.66;10454501;28;20033;-76
2022/05/14 23:20:29;;;;;;;9.15;5.05;;;;;;;13.82;79.69;99896.06;10453390;28;20036;-76
2022/05/14 23:25:33;;;;;;;21.02;6.45;;;;;;;13.82;80.18;99887.22;10454014;28;20064;-76
2022/05/14 23:30:36;;;;;;;20.05;6.78;;;;;;;13.92;79.10;99906.38;10454053;28;20086;-77
2022/05/14 23:35:40;;;;;;;9.85;4.85;;;;;;;13.59;79.24;99875.03;10454172;28;20040;-77
2022/05/14 23:40:40;;;;;;;10.07;4.47;;;;;;;12.65;78.74;99747.53;10454307;28;20033;-76
2022/05/14 23:45:41;;;;;;;9.15;4.03;;;;;;;13.35;80.16;99887.03;10453687;28;20520;-76
2022/05/14 23:50:43;;;;;;;21.75;4.43;;;;;;;13.46;80.59;99891.81;10452787;28;20056;-78
2022/05/14 23:55:44;;;;;;;6.53;3.42;;;;;;;13.22;79.91;99874.41;10452464;28;20049;-78
